Time;durP1;ratioP1;P1;durP2;ratioP2;P2;SDS_P1;SDS_P2;PMS_P1;PMS_P2;Temp;Humidity;BMP_temperature;BMP_pressure;BME280_temperature;BME280_humidity;BME280_pressure;Samples;Min_cycle;Max_cycle;Signal;HPM_P1;HPM_P2
2023/05/05 00:00:54;;;;;;;3.80;2.90;;;;;;;;;;5094244;28;20208;-87
2023/05/05 00:03:21;;;;;;;2.70;2.50;;;;;;;;;;5114201;28;20268;-87
2023/05/05 00:05:49;;;;;;;3.20;2.90;;;;;;;;;;5116065;28;20206;-87
2023/05/05 00:08:16;;;;;;;2.90;2.70;;;;;;;;;;5115465;28;20260;-87
2023/05/05 00:10:45;;;;;;;3.10;2.90;;;;;;;;;;5115762;28;20216;-87
2023/05/05 00:13:13;;;;;;;2.87;2.50;;;;;;;;;;5115675;28;20200;-87
2023/05/05 00:15:42;;;;;;;3.53;3.23;;;;;;;;;;5115246;28;20261;-87
2023/05/05 00:18:09;;;;;;;3.23;2.93;;;;;;;;;;5115611;28;20237;-88
2023/05/05 00:20:37;;;;;;;3.17;2.90;;;;;;;;;;5111452;28;20212;-88
2023/05/05 00:23:04;;;;;;;3.00;2.80;;;;;;;;;;5113817;28;21016;-87
2023/05/05 00:25:31;;;;;;;3.50;3.10;;;;;;;;;;5102424;28;20607;-87
2023/05/05 00:27:59;;;;;;;2.60;2.40;;;;;;;;;;5097540;28;20245;-88
2023/05/05 00:30:28;;;;;;;3.07;2.50;;;;;;;;;;5115022;28;20280;-87
2023/05/05 00:32:55;;;;;;;3.03;2.83;;;;;;;;;;5108614;28;20246;-87
2023/05/05 00:35:22;;;;;;;2.97;2.77;;;;;;;;;;5101196;28;20241;-87
2023/05/05 00:37:49;;;;;;;3.27;2.53;;;;;;;;;;5114844;28;20748;-87
2023/05/05 00:40:17;;;;;;;3.27;2.80;;;;;;;;;;5115027;28;20203;-87
2023/05/05 00:42:45;;;;;;;3.13;2.73;;;;;;;;;;5102808;28;20207;-87
2023/05/05 00:45:13;;;;;;;2.80;2.60;;;;;;;;;;5102311;28;20213;-87
2023/05/05 00:47:42;;;;;;;6.10;2.70;;;;;;;;;;5084842;28;20264;-87
2023/05/05 00:50:09;;;;;;;2.97;2.50;;;;;;;;;;5114780;28;20219;-87
2023/05/05 00:52:37;;;;;;;2.70;2.50;;;;;;;;;;5114875;28;20739;-86
2023/05/05 00:55:04;;;;;;;2.57;2.37;;;;;;;;;;5114918;28;20203;-87
2023/05/05 00:57:32;;;;;;;2.43;2.23;;;;;;;;;;5097186;28;20265;-87
2023/05/05 00:59:59;;;;;;;3.23;2.60;;;;;;;;;;5114788;28;20286;-87
2023/05/05 01:02:26;;;;;;;2.60;2.40;;;;;;;;;;5115221;28;20264;-87
2023/05/05 01:04:55;;;;;;;2.60;2.40;;;;;;;;;;5107627;28;20264;-87
2023/05/05 01:07:28;;;;;;;2.60;2.40;;;;;;;;;;5114247;28;20206;-87
2023/05/05 01:09:59;;;;;;;2.70;2.30;;;;;;;;;;5114418;28;20223;-88
2023/05/05 01:12:34;;;;;;;2.70;2.50;;;;;;;;;;5114959;28;20256;-87
2023/05/05 01:15:13;;;;;;;2.57;2.13;;;;;;;;;;5103735;28;20202;-88
2023/05/05 01:17:45;;;;;;;2.03;1.93;;;;;;;;;;5102387;28;20207;-87
2023/05/05 01:20:17;;;;;;;3.27;2.57;;;;;;;;;;5114927;28;20678;-88
2023/05/05 01:22:47;;;;;;;2.93;2.60;;;;;;;;;;5114513;28;20203;-87
2023/05/05 01:25:41;;;;;;;3.47;3.17;;;;;;;;;;5099697;28;20265;-87
2023/05/05 01:28:24;;;;;;;3.30;2.67;;;;;;;;;;5114787;28;20665;-88
2023/05/05 01:31:10;;;;;;;5.43;2.37;;;;;;;;;;5114436;28;20686;-87
2023/05/05 01:33:44;;;;;;;2.70;2.50;;;;;;;;;;5079459;28;20213;-88
2023/05/05 01:36:21;;;;;;;3.30;3.00;;;;;;;;;;5114433;28;20204;-88
2023/05/05 01:38:51;;;;;;;3.57;3.27;;;;;;;;;;5109114;28;20689;-88
2023/05/05 01:41:20;;;;;;;4.43;3.77;;;;;;;;;;5113902;28;20218;-87
2023/05/05 01:43:49;;;;;;;2.80;2.57;;;;;;;;;;5114237;28;20207;-87
2023/05/05 01:46:16;;;;;;;3.07;2.77;;;;;;;;;;5114154;28;20211;-87
2023/05/05 01:48:45;;;;;;;3.23;2.93;;;;;;;;;;5113680;28;20211;-87
2023/05/05 01:51:12;;;;;;;4.07;3.20;;;;;;;;;;5112233;28;20672;-88
2023/05/05 01:53:40;;;;;;;3.33;3.07;;;;;;;;;;5129996;27;20199;-88
2023/05/05 01:56:08;;;;;;;3.90;3.50;;;;;;;;;;5094975;28;20203;-88
2023/05/05 01:58:37;;;;;;;3.20;2.90;;;;;;;;;;5096124;28;20211;-88
2023/05/05 02:01:04;;;;;;;4.17;3.77;;;;;;;;;;5113965;28;20199;-87
2023/05/05 02:03:32;;;;;;;4.20;3.80;;;;;;;;;;5113345;28;20207;-88
2023/05/05 02:06:01;;;;;;;4.33;3.63;;;;;;;;;;5096744;28;20195;-87
2023/05/05 02:08:29;;;;;;;3.57;3.27;;;;;;;;;;5105358;28;20339;-88
2023/05/05 02:10:56;;;;;;;3.37;2.63;;;;;;;;;;5095655;28;20287;-87
2023/05/05 02:13:23;;;;;;;3.57;3.13;;;;;;;;;;5113708;28;20207;-88
2023/05/05 02:15:51;;;;;;;3.77;3.47;;;;;;;;;;5108627;28;20199;-88
2023/05/05 02:18:19;;;;;;;4.03;3.47;;;;;;;;;;5105992;28;20769;-88
2023/05/05 02:20:47;;;;;;;3.37;3.07;;;;;;;;;;5108136;28;20244;-87
2023/05/05 02:23:16;;;;;;;3.47;3.17;;;;;;;;;;5107178;28;20208;-88
2023/05/05 02:25:46;;;;;;;5.30;3.73;;;;;;;;;;5112145;28;20216;-88
2023/05/05 02:28:31;;;;;;;3.07;2.77;;;;;;;;;;5112368;28;20207;-88
2023/05/05 02:30:59;;;;;;;5.93;2.90;;;;;;;;;;5112733;28;20227;-88
2023/05/05 02:33:27;;;;;;;3.43;3.13;;;;;;;;;;5113035;28;20207;-88
2023/05/05 02:35:55;;;;;;;2.83;2.63;;;;;;;;;;5102685;28;20203;-88
2023/05/05 02:38:27;;;;;;;3.33;2.83;;;;;;;;;;5112857;28;20300;-88
2023/05/05 02:40:55;;;;;;;3.73;2.90;;;;;;;;;;5095011;28;20242;-88
2023/05/05 02:43:23;;;;;;;2.93;2.70;;;;;;;;;;5112814;28;20217;-87
2023/05/05 02:45:50;;;;;;;2.63;2.40;;;;;;;;;;5112650;28;20204;-86
2023/05/05 02:48:17;;;;;;;2.90;2.60;;;;;;;;;;5106602;28;20212;-87
2023/05/05 02:50:44;;;;;;;2.70;2.40;;;;;;;;;;5110848;28;20231;-87
2023/05/05 02:53:11;;;;;;;2.33;2.17;;;;;;;;;;5110368;28;20613;-87
2023/05/05 02:55:45;;;;;;;3.13;2.87;;;;;;;;;;5111936;28;20204;-88
2023/05/05 02:58:20;;;;;;;2.60;2.40;;;;;;;;;;5094965;28;20211;-88
2023/05/05 03:00:51;;;;;;;2.30;2.10;;;;;;;;;;5104517;28;20196;-87
2023/05/05 03:03:22;;;;;;;2.77;2.57;;;;;;;;;;5101922;28;20210;-87
2023/05/05 03:05:51;;;;;;;3.43;2.43;;;;;;;;;;5112684;28;20219;-87
2023/05/05 03:08:24;;;;;;;2.73;2.23;;;;;;;;;;5112608;28;20211;-86
2023/05/05 03:11:00;;;;;;;2.50;2.30;;;;;;;;;;5111535;28;20241;-87
2023/05/05 03:13:28;;;;;;;2.50;2.30;;;;;;;;;;5111523;28;20241;-87
2023/05/05 03:15:56;;;;;;;2.57;2.37;;;;;;;;;;5111860;28;20207;-88
2023/05/05 03:18:24;;;;;;;2.47;2.27;;;;;;;;;;5111928;28;20285;-87
2023/05/05 03:20:51;;;;;;;2.67;2.10;;;;;;;;;;5109144;28;20204;-87
2023/05/05 03:23:19;;;;;;;2.37;2.10;;;;;;;;;;5112823;28;20200;-87
2023/05/05 03:25:47;;;;;;;2.20;1.97;;;;;;;;;;5108272;28;20203;-87
2023/05/05 03:28:18;;;;;;;2.87;2.10;;;;;;;;;;5120884;28;20214;-87
2023/05/05 03:30:45;;;;;;;2.53;2.33;;;;;;;;;;5112217;28;20227;-88
2023/05/05 03:33:12;;;;;;;3.00;2.70;;;;;;;;;;5111307;28;20207;-88
2023/05/05 03:35:39;;;;;;;2.60;2.40;;;;;;;;;;5111450;28;20268;-87
2023/05/05 03:38:06;;;;;;;2.33;2.13;;;;;;;;;;5114247;28;20230;-88
2023/05/05 03:40:33;;;;;;;2.90;2.60;;;;;;;;;;5101507;28;20203;-87
2023/05/05 03:43:00;;;;;;;2.17;2.07;;;;;;;;;;5112524;28;20656;-85
2023/05/05 03:45:28;;;;;;;2.10;1.90;;;;;;;;;;5098491;28;20203;-91
2023/05/05 03:47:56;;;;;;;2.80;2.43;;;;;;;;;;5119070;28;20207;-89
2023/05/05 03:50:23;;;;;;;2.63;2.43;;;;;;;;;;5116006;28;20226;-90
2023/05/05 03:52:50;;;;;;;2.33;2.13;;;;;;;;;;5098773;28;20199;-90
2023/05/05 03:55:17;;;;;;;2.47;2.27;;;;;;;;;;5115977;28;20203;-91
2023/05/05 03:57:44;;;;;;;2.40;2.03;;;;;;;;;;5098552;28;20685;-91
2023/05/05 04:00:14;;;;;;;4.33;4.03;;;;;;;;;;5098156;28;20641;-91
2023/05/05 04:02:43;;;;;;;3.10;2.80;;;;;;;;;;5099688;28;20207;-90
2023/05/05 04:05:10;;;;;;;2.60;2.40;;;;;;;;;;5106835;28;20211;-90
2023/05/05 04:07:37;;;;;;;3.33;2.47;;;;;;;;;;5107098;28;20191;-91
2023/05/05 04:10:05;;;;;;;3.20;2.90;;;;;;;;;;5098247;28;20719;-89
2023/05/05 04:12:32;;;;;;;3.63;3.23;;;;;;;;;;5102904;28;20234;-90
2023/05/05 04:14:59;;;;;;;3.30;3.10;;;;;;;;;;5081749;28;20211;-90
2023/05/05 04:17:26;;;;;;;4.47;3.30;;;;;;;;;;5103097;28;20211;-90
2023/05/05 04:19:55;;;;;;;3.50;3.20;;;;;;;;;;5103597;28;20212;-92
2023/05/05 04:22:22;;;;;;;5.23;4.17;;;;;;;;;;5086291;28;20718;-90
2023/05/05 04:24:50;;;;;;;3.00;2.80;;;;;;;;;;5098011;28;20199;-89
2023/05/05 04:27:17;;;;;;;3.83;3.23;;;;;;;;;;5109813;28;20211;-90
2023/05/05 04:29:44;;;;;;;3.63;2.50;;;;;;;;;;5097653;28;20203;-90
2023/05/05 04:32:11;;;;;;;5.23;3.00;;;;;;;;;;5097785;28;20227;-90
2023/05/05 04:34:38;;;;;;;3.40;2.60;;;;;;;;;;5115423;28;20203;-89
2023/05/05 04:37:07;;;;;;;3.27;2.50;;;;;;;;;;5097862;28;20214;-89
2023/05/05 04:39:34;;;;;;;3.30;3.00;;;;;;;;;;5115961;28;20277;-89
2023/05/05 04:42:01;;;;;;;3.87;3.57;;;;;;;;;;5097788;28;20243;-89
2023/05/05 04:44:28;;;;;;;3.37;2.73;;;;;;;;;;5107136;28;20272;-89
2023/05/05 04:46:55;;;;;;;6.23;3.83;;;;;;;;;;5098178;28;20203;-90
2023/05/05 04:49:21;;;;;;;3.63;3.20;;;;;;;;;;5115368;28;20236;-89
2023/05/05 04:51:48;;;;;;;4.57;4.07;;;;;;;;;;5115681;28;20227;-90
2023/05/05 04:54:16;;;;;;;4.27;3.50;;;;;;;;;;5115059;28;20206;-89
2023/05/05 04:56:43;;;;;;;4.37;3.97;;;;;;;;;;5115618;28;20207;-89
2023/05/05 04:59:10;;;;;;;4.43;4.03;;;;;;;;;;5115321;28;20283;-90
2023/05/05 05:01:37;;;;;;;4.23;3.83;;;;;;;;;;5115119;28;20272;-89
2023/05/05 05:04:04;;;;;;;5.10;4.60;;;;;;;;;;5115781;28;20208;-89
2023/05/05 05:06:31;;;;;;;5.13;3.40;;;;;;;;;;5116312;28;20211;-89
2023/05/05 05:08:58;;;;;;;4.00;3.60;;;;;;;;;;5116114;28;20212;-89
2023/05/05 05:11:26;;;;;;;3.73;3.43;;;;;;;;;;5115371;28;20231;-89
2023/05/05 05:13:53;;;;;;;7.10;3.90;;;;;;;;;;5115055;28;20207;-90
2023/05/05 05:16:20;;;;;;;2.97;2.67;;;;;;;;;;5115147;28;20280;-89
2023/05/05 05:18:47;;;;;;;2.80;2.60;;;;;;;;;;5115039;28;20245;-90
2023/05/05 05:21:13;;;;;;;3.37;3.07;;;;;;;;;;5115028;28;20666;-89
2023/05/05 05:23:40;;;;;;;3.67;3.33;;;;;;;;;;5115146;28;20697;-89
2023/05/05 05:26:10;;;;;;;5.40;3.43;;;;;;;;;;5116274;28;20297;-90
2023/05/05 05:28:38;;;;;;;4.87;3.20;;;;;;;;;;5114804;28;20208;-90
2023/05/05 05:31:05;;;;;;;3.40;3.10;;;;;;;;;;5115007;28;20228;-89
2023/05/05 05:33:32;;;;;;;3.30;3.10;;;;;;;;;;5114479;28;20729;-90
2023/05/05 05:35:59;;;;;;;4.23;3.77;;;;;;;;;;5114807;28;20216;-90
2023/05/05 05:38:26;;;;;;;3.07;2.77;;;;;;;;;;5114710;28;20238;-89
2023/05/05 05:40:53;;;;;;;4.27;2.60;;;;;;;;;;5114399;28;20204;-89
2023/05/05 05:43:20;;;;;;;3.20;2.90;;;;;;;;;;5114318;28;20205;-89
2023/05/05 05:45:50;;;;;;;5.00;3.10;;;;;;;;;;5114001;28;20207;-89
2023/05/05 05:48:17;;;;;;;3.53;3.13;;;;;;;;;;5114656;28;20207;-89
2023/05/05 05:50:44;;;;;;;3.33;2.83;;;;;;;;;;5114405;28;20211;-88
2023/05/05 05:53:10;;;;;;;2.83;2.63;;;;;;;;;;5114166;28;20211;-88
2023/05/05 05:55:37;;;;;;;4.97;2.50;;;;;;;;;;5114680;28;20207;-89
2023/05/05 05:58:05;;;;;;;4.00;2.73;;;;;;;;;;5114468;28;20207;-88
2023/05/05 06:00:31;;;;;;;2.57;2.37;;;;;;;;;;5113560;28;20614;-88
2023/05/05 06:03:00;;;;;;;3.43;2.60;;;;;;;;;;5113929;28;20753;-88
2023/05/05 06:05:26;;;;;;;3.17;2.90;;;;;;;;;;5114164;28;20209;-88
2023/05/05 06:07:53;;;;;;;4.40;2.23;;;;;;;;;;5113941;28;20207;-89
2023/05/05 06:10:20;;;;;;;3.40;2.73;;;;;;;;;;5113973;28;20208;-89
2023/05/05 06:12:47;;;;;;;3.03;2.63;;;;;;;;;;5113674;28;20229;-88
2023/05/05 06:15:13;;;;;;;2.87;2.57;;;;;;;;;;5113751;28;20219;-88
2023/05/05 06:17:40;;;;;;;3.03;2.70;;;;;;;;;;5114080;28;20205;-90
2023/05/05 06:20:10;;;;;;;2.53;2.17;;;;;;;;;;5113765;28;20206;-89
2023/05/05 06:22:36;;;;;;;5.13;2.70;;;;;;;;;;5113672;28;20235;-88
2023/05/05 06:25:03;;;;;;;3.33;3.00;;;;;;;;;;5113745;28;20202;-90
2023/05/05 06:27:30;;;;;;;2.73;2.50;;;;;;;;;;5113658;28;20276;-89
2023/05/05 06:29:57;;;;;;;3.20;2.77;;;;;;;;;;5113567;28;20203;-89
2023/05/05 06:32:23;;;;;;;5.43;2.50;;;;;;;;;;5113503;28;20287;-89
2023/05/05 06:34:50;;;;;;;2.50;2.27;;;;;;;;;;5113645;28;20247;-89
2023/05/05 06:37:18;;;;;;;2.30;2.10;;;;;;;;;;5113415;28;20691;-89
2023/05/05 06:39:45;;;;;;;2.40;2.20;;;;;;;;;;5113725;28;20295;-89
2023/05/05 06:42:12;;;;;;;2.90;2.70;;;;;;;;;;5113447;28;20199;-89
2023/05/05 06:44:40;;;;;;;2.93;2.70;;;;;;;;;;5113386;28;20196;-89
2023/05/05 06:47:08;;;;;;;4.27;2.83;;;;;;;;;;5113608;28;20207;-88
2023/05/05 06:49:35;;;;;;;4.57;2.50;;;;;;;;;;5112930;28;20195;-89
2023/05/05 06:52:02;;;;;;;5.90;2.60;;;;;;;;;;5113279;28;20223;-89
2023/05/05 06:54:30;;;;;;;2.70;2.50;;;;;;;;;;5113147;28;20800;-89
2023/05/05 06:56:57;;;;;;;3.03;2.37;;;;;;;;;;5113524;28;20199;-90
2023/05/05 06:59:23;;;;;;;2.40;2.20;;;;;;;;;;5113144;28;20203;-89
2023/05/05 07:01:51;;;;;;;2.47;2.20;;;;;;;;;;5112958;28;20260;-89
2023/05/05 07:04:18;;;;;;;2.90;2.60;;;;;;;;;;5113497;28;20207;-90
2023/05/05 07:06:44;;;;;;;4.73;2.97;;;;;;;;;;5113182;28;20229;-89
2023/05/05 07:09:11;;;;;;;2.73;2.53;;;;;;;;;;5112780;28;20296;-91
2023/05/05 07:11:40;;;;;;;3.60;2.80;;;;;;;;;;5111909;28;20223;-90
2023/05/05 07:14:06;;;;;;;2.93;2.63;;;;;;;;;;5112754;28;20245;-91
2023/05/05 07:16:35;;;;;;;10.20;5.17;;;;;;;;;;5113202;28;20279;-89
2023/05/05 07:19:04;;;;;;;3.63;2.80;;;;;;;;;;5113328;28;20299;-87
2023/05/05 07:21:31;;;;;;;2.57;2.20;;;;;;;;;;5112908;28;20294;-89
2023/05/05 07:23:58;;;;;;;3.90;2.67;;;;;;;;;;5112804;28;20285;-88
2023/05/05 07:26:25;;;;;;;2.63;2.43;;;;;;;;;;5112557;28;20587;-87
2023/05/05 07:28:54;;;;;;;2.90;2.33;;;;;;;;;;5097945;28;20705;-87
2023/05/05 07:31:21;;;;;;;5.23;2.50;;;;;;;;;;5112897;28;20636;-89
2023/05/05 07:33:48;;;;;;;2.67;2.20;;;;;;;;;;5113015;28;20636;-89
2023/05/05 07:36:15;;;;;;;2.53;2.33;;;;;;;;;;5113081;28;20272;-89
2023/05/05 07:38:42;;;;;;;2.60;2.40;;;;;;;;;;5112922;28;20235;-90
2023/05/05 07:41:10;;;;;;;3.10;2.60;;;;;;;;;;5112848;28;20217;-90
2023/05/05 07:43:37;;;;;;;2.70;2.50;;;;;;;;;;5112601;28;20203;-89
2023/05/05 07:46:05;;;;;;;3.07;2.43;;;;;;;;;;5112713;28;20223;-89
2023/05/05 07:48:32;;;;;;;3.13;2.40;;;;;;;;;;5112603;28;20211;-88
2023/05/05 07:50:59;;;;;;;2.50;2.30;;;;;;;;;;5112613;28;20208;-89
2023/05/05 07:53:26;;;;;;;4.03;2.70;;;;;;;;;;5112079;28;20232;-89
2023/05/05 07:55:53;;;;;;;2.33;2.13;;;;;;;;;;5112538;28;20224;-89
2023/05/05 07:58:19;;;;;;;3.80;2.97;;;;;;;;;;5112717;28;20313;-90
2023/05/05 08:00:48;;;;;;;3.27;2.97;;;;;;;;;;5112828;28;20218;-89
2023/05/05 08:03:22;;;;;;;3.27;2.47;;;;;;;;;;5112368;28;20216;-89
2023/05/05 08:05:53;;;;;;;2.60;2.40;;;;;;;;;;5113020;28;20215;-90
2023/05/05 08:08:23;;;;;;;2.33;2.17;;;;;;;;;;5112606;28;20200;-89
2023/05/05 08:10:50;;;;;;;2.83;2.23;;;;;;;;;;5112560;28;20201;-89
2023/05/05 08:13:16;;;;;;;2.30;2.10;;;;;;;;;;5112480;28;20277;-90
2023/05/05 08:15:44;;;;;;;3.53;2.50;;;;;;;;;;5112439;28;20211;-92
2023/05/05 08:18:11;;;;;;;3.07;2.57;;;;;;;;;;5112346;28;20741;-90
2023/05/05 08:20:39;;;;;;;3.73;2.63;;;;;;;;;;5112600;28;20215;-89
2023/05/05 08:23:06;;;;;;;2.60;2.33;;;;;;;;;;5112787;28;20237;-89
2023/05/05 08:25:33;;;;;;;2.57;2.37;;;;;;;;;;5115934;28;20700;-90
2023/05/05 08:27:59;;;;;;;2.67;2.47;;;;;;;;;;5116324;28;20644;-90
2023/05/05 08:30:26;;;;;;;3.13;2.50;;;;;;;;;;5116295;28;20202;-90
2023/05/05 08:32:53;;;;;;;2.67;2.47;;;;;;;;;;5115711;28;20226;-90
2023/05/05 08:35:20;;;;;;;4.07;2.60;;;;;;;;;;5115752;28;20209;-90
2023/05/05 08:37:49;;;;;;;3.20;2.60;;;;;;;;;;5116221;28;20715;-89
2023/05/05 08:40:16;;;;;;;2.20;2.00;;;;;;;;;;5115928;28;20214;-89
2023/05/05 08:42:44;;;;;;;2.87;2.67;;;;;;;;;;5116425;28;20283;-91
2023/05/05 08:45:11;;;;;;;3.93;2.47;;;;;;;;;;5102770;28;20214;-89
2023/05/05 08:47:38;;;;;;;3.27;2.20;;;;;;;;;;5115828;28;20206;-89
2023/05/05 08:50:06;;;;;;;2.67;2.47;;;;;;;;;;5115765;28;20202;-89
2023/05/05 08:52:39;;;;;;;3.33;2.27;;;;;;;;;;5115524;28;20634;-90
2023/05/05 08:55:14;;;;;;;2.47;2.10;;;;;;;;;;5115522;28;20196;-89
2023/05/05 08:57:45;;;;;;;2.40;2.20;;;;;;;;;;5115618;28;20209;-90
2023/05/05 09:00:13;;;;;;;2.00;1.90;;;;;;;;;;5115319;28;20203;-90
2023/05/05 09:02:40;;;;;;;2.03;1.93;;;;;;;;;;5115238;28;20211;-91
2023/05/05 09:05:08;;;;;;;2.40;2.17;;;;;;;;;;5115423;28;20252;-89
2023/05/05 09:07:35;;;;;;;2.93;2.70;;;;;;;;;;5115139;28;20203;-89
2023/05/05 09:10:04;;;;;;;2.47;2.27;;;;;;;;;;5115566;28;20203;-90
2023/05/05 09:12:32;;;;;;;3.10;2.77;;;;;;;;;;5115110;28;20250;-88
2023/05/05 09:15:02;;;;;;;2.90;2.50;;;;;;;;;;5115281;28;20203;-90
2023/05/05 09:17:30;;;;;;;2.40;2.27;;;;;;;;;;5115175;28;20260;-90
2023/05/05 09:20:07;;;;;;;2.63;2.43;;;;;;;;;;5115121;28;20269;-89
2023/05/05 09:22:36;;;;;;;3.47;2.57;;;;;;;;;;5095003;28;20281;-89
2023/05/05 09:25:03;;;;;;;2.50;2.30;;;;;;;;;;5110165;28;20216;-90
2023/05/05 09:27:30;;;;;;;2.90;2.70;;;;;;;;;;5115279;28;20207;-89
2023/05/05 09:29:59;;;;;;;2.63;2.43;;;;;;;;;;5115083;28;20204;-89
2023/05/05 09:32:25;;;;;;;2.10;2.00;;;;;;;;;;5114878;28;20284;-89
2023/05/05 09:34:59;;;;;;;2.10;1.90;;;;;;;;;;5113635;28;20261;-90
2023/05/05 09:37:29;;;;;;;2.43;2.10;;;;;;;;;;5115121;28;20637;-90
2023/05/05 09:39:57;;;;;;;4.23;2.67;;;;;;;;;;5114860;28;20215;-90
2023/05/05 09:42:24;;;;;;;4.40;2.37;;;;;;;;;;5114949;28;20213;-89
2023/05/05 09:44:51;;;;;;;4.17;3.77;;;;;;;;;;5114093;28;20200;-89
2023/05/05 09:47:19;;;;;;;3.23;2.17;;;;;;;;;;5114868;28;20666;-89
2023/05/05 09:49:57;;;;;;;2.50;2.30;;;;;;;;;;5114683;28;20264;-89
2023/05/05 09:52:24;;;;;;;2.10;2.00;;;;;;;;;;5114344;28;20319;-88
2023/05/05 09:54:54;;;;;;;2.43;2.17;;;;;;;;;;5101636;28;20265;-90
2023/05/05 09:57:29;;;;;;;3.53;1.90;;;;;;;;;;5115147;28;20230;-90
2023/05/05 09:59:57;;;;;;;2.47;2.27;;;;;;;;;;5114419;28;20199;-88
2023/05/05 10:02:32;;;;;;;2.20;2.07;;;;;;;;;;5114369;28;20204;-89
2023/05/05 10:05:06;;;;;;;2.00;1.90;;;;;;;;;;5114329;28;20249;-89
2023/05/05 10:07:33;;;;;;;2.47;2.27;;;;;;;;;;5113859;28;20269;-88
2023/05/05 10:10:00;;;;;;;2.40;2.07;;;;;;;;;;5113933;28;20677;-88
2023/05/05 10:12:28;;;;;;;4.43;2.40;;;;;;;;;;5113990;28;20227;-88
2023/05/05 10:14:56;;;;;;;3.23;2.13;;;;;;;;;;5113983;28;20211;-88
2023/05/05 10:17:23;;;;;;;2.53;2.33;;;;;;;;;;5114005;28;20268;-89
2023/05/05 10:19:52;;;;;;;2.60;2.40;;;;;;;;;;5114465;28;20315;-88
2023/05/05 10:22:23;;;;;;;6.73;2.13;;;;;;;;;;5113944;28;20286;-89
2023/05/05 10:24:56;;;;;;;2.73;2.53;;;;;;;;;;5113875;28;20260;-89
2023/05/05 10:27:24;;;;;;;2.10;1.90;;;;;;;;;;5114135;28;20234;-89
2023/05/05 10:29:55;;;;;;;4.27;3.10;;;;;;;;;;5113676;28;20201;-90
2023/05/05 10:32:27;;;;;;;3.43;2.33;;;;;;;;;;5113897;28;20249;-89
2023/05/05 10:34:58;;;;;;;1.97;1.87;;;;;;;;;;5113969;28;20207;-89
2023/05/05 10:37:26;;;;;;;2.10;2.00;;;;;;;;;;5113769;28;20637;-89
2023/05/05 10:39:53;;;;;;;2.30;2.10;;;;;;;;;;5113628;28;20780;-90
2023/05/05 10:42:23;;;;;;;2.93;1.90;;;;;;;;;;5113387;28;20214;-87
2023/05/05 10:44:50;;;;;;;2.37;2.17;;;;;;;;;;5113853;28;20673;-88
2023/05/05 10:47:17;;;;;;;1.80;1.70;;;;;;;;;;5113374;28;20693;-88
2023/05/05 10:49:47;;;;;;;1.80;1.70;;;;;;;;;;5113005;28;20280;-88
2023/05/05 10:52:22;;;;;;;1.80;1.70;;;;;;;;;;5112947;28;20294;-87
2023/05/05 10:54:55;;;;;;;2.27;2.07;;;;;;;;;;5113440;28;20213;-88
2023/05/05 10:57:24;;;;;;;4.00;2.00;;;;;;;;;;5112791;28;20207;-88
2023/05/05 10:59:50;;;;;;;4.77;2.33;;;;;;;;;;5112940;28;20291;-88
2023/05/05 11:02:22;;;;;;;2.60;2.40;;;;;;;;;;5113069;28;20248;-89
2023/05/05 11:05:09;;;;;;;2.00;1.80;;;;;;;;;;5113026;28;20246;-88
2023/05/05 11:07:37;;;;;;;2.17;2.07;;;;;;;;;;5112804;28;20256;-88
2023/05/05 11:10:05;;;;;;;1.80;1.70;;;;;;;;;;5112965;28;20668;-88
2023/05/05 11:12:33;;;;;;;3.07;2.10;;;;;;;;;;5112934;28;20257;-89
2023/05/05 11:15:36;;;;;;;2.77;2.57;;;;;;;;;;5112457;28;20211;-88
2023/05/05 11:18:04;;;;;;;2.40;2.20;;;;;;;;;;5113387;28;20241;-90
2023/05/05 11:21:06;;;;;;;3.03;2.20;;;;;;;;;;5112495;28;20643;-89
2023/05/05 11:23:34;;;;;;;2.10;1.90;;;;;;;;;;5112398;28;20203;-88
2023/05/05 11:26:00;;;;;;;2.87;2.63;;;;;;;;;;5112586;28;20249;-88
2023/05/05 11:28:29;;;;;;;2.20;1.97;;;;;;;;;;5112572;28;20211;-89
2023/05/05 11:31:16;;;;;;;2.60;2.37;;;;;;;;;;5112784;28;20214;-89
2023/05/05 11:33:43;;;;;;;2.80;1.67;;;;;;;;;;5112449;28;20270;-88
2023/05/05 11:36:11;;;;;;;2.10;2.00;;;;;;;;;;5112604;28;20681;-88
2023/05/05 11:38:48;;;;;;;2.47;2.27;;;;;;;;;;5112239;28;20224;-88
2023/05/05 11:41:22;;;;;;;2.30;2.10;;;;;;;;;;5112792;28;20234;-88
2023/05/05 11:43:49;;;;;;;2.33;2.20;;;;;;;;;;5112380;28;20210;-89
2023/05/05 11:46:16;;;;;;;2.00;1.90;;;;;;;;;;5112479;28;20203;-88
2023/05/05 11:48:47;;;;;;;2.10;2.00;;;;;;;;;;5112123;28;20207;-87
2023/05/05 11:51:14;;;;;;;2.47;2.27;;;;;;;;;;5112592;28;20277;-88
2023/05/05 11:53:43;;;;;;;7.70;2.30;;;;;;;;;;5112173;28;20227;-88
2023/05/05 11:56:11;;;;;;;1.77;1.67;;;;;;;;;;5112410;28;20294;-89
2023/05/05 11:58:38;;;;;;;2.30;2.10;;;;;;;;;;5113688;28;20214;-88
2023/05/05 12:01:06;;;;;;;2.30;2.10;;;;;;;;;;5116799;28;20195;-90
2023/05/05 12:03:35;;;;;;;2.13;1.93;;;;;;;;;;5116747;28;20248;-90
2023/05/05 12:06:02;;;;;;;3.73;2.10;;;;;;;;;;5115897;28;20290;-90
2023/05/05 12:08:28;;;;;;;2.40;2.20;;;;;;;;;;5116457;28;20631;-88
2023/05/05 12:11:03;;;;;;;2.00;1.90;;;;;;;;;;5116396;28;20630;-88
2023/05/05 12:13:30;;;;;;;2.17;2.03;;;;;;;;;;5115803;28;20284;-89
2023/05/05 12:15:57;;;;;;;2.97;2.10;;;;;;;;;;5102794;28;20252;-88
2023/05/05 12:18:24;;;;;;;2.47;2.27;;;;;;;;;;5115850;28;20203;-89
2023/05/05 12:20:51;;;;;;;2.37;2.17;;;;;;;;;;5116109;28;20211;-88
2023/05/05 12:23:19;;;;;;;2.00;1.90;;;;;;;;;;5115876;28;20281;-89
2023/05/05 12:25:45;;;;;;;2.17;2.07;;;;;;;;;;5116183;28;20209;-87
2023/05/05 12:28:14;;;;;;;2.50;2.30;;;;;;;;;;5115934;28;20646;-89
2023/05/05 12:30:41;;;;;;;2.07;1.93;;;;;;;;;;5116170;28;20199;-89
2023/05/05 12:33:08;;;;;;;2.40;2.20;;;;;;;;;;5116005;28;20677;-89
2023/05/05 12:35:35;;;;;;;2.40;2.20;;;;;;;;;;5115850;28;20211;-88
2023/05/05 12:38:02;;;;;;;2.47;2.07;;;;;;;;;;5116152;28;20227;-89
2023/05/05 12:40:48;;;;;;;3.43;2.30;;;;;;;;;;5115407;28;20203;-88
2023/05/05 12:43:40;;;;;;;2.50;2.30;;;;;;;;;;5115365;28;20721;-89
2023/05/05 12:46:08;;;;;;;4.27;3.30;;;;;;;;;;5099884;28;20585;-88
2023/05/05 12:48:36;;;;;;;2.97;2.57;;;;;;;;;;5115152;28;20211;-88
2023/05/05 12:51:14;;;;;;;5.07;2.57;;;;;;;;;;5115302;28;20598;-90
2023/05/05 12:53:42;;;;;;;4.93;2.33;;;;;;;;;;5115498;28;20276;-88
2023/05/05 12:56:34;;;;;;;3.50;2.13;;;;;;;;;;5115165;28;20207;-87
2023/05/05 12:59:03;;;;;;;4.17;3.20;;;;;;;;;;5115496;28;20242;-88
2023/05/05 13:01:30;;;;;;;3.97;2.10;;;;;;;;;;5115019;28;20669;-88
2023/05/05 13:04:13;;;;;;;2.60;2.40;;;;;;;;;;5115357;28;20206;-88
2023/05/05 13:06:41;;;;;;;4.43;2.37;;;;;;;;;;5115002;28;20207;-88
2023/05/05 13:09:09;;;;;;;3.43;2.17;;;;;;;;;;5114642;28;20256;-88
2023/05/05 13:11:36;;;;;;;3.37;2.37;;;;;;;;;;5115033;28;20677;-88
2023/05/05 13:14:06;;;;;;;3.03;2.73;;;;;;;;;;5114997;28;20227;-89
2023/05/05 13:16:33;;;;;;;3.33;3.00;;;;;;;;;;5114854;28;20652;-88
2023/05/05 13:19:00;;;;;;;2.73;2.43;;;;;;;;;;5114457;28;20290;-88
2023/05/05 13:21:26;;;;;;;3.77;2.60;;;;;;;;;;5115134;28;20246;-88
2023/05/05 13:23:53;;;;;;;2.73;2.53;;;;;;;;;;5114654;28;20203;-88
2023/05/05 13:26:20;;;;;;;3.57;3.27;;;;;;;;;;5114472;28;20233;-88
2023/05/05 13:28:47;;;;;;;3.33;3.03;;;;;;;;;;5100993;28;20264;-88
2023/05/05 13:31:15;;;;;;;3.97;2.50;;;;;;;;;;5114881;28;20203;-88
2023/05/05 13:33:42;;;;;;;2.70;2.50;;;;;;;;;;5101180;28;20245;-88
2023/05/05 13:36:09;;;;;;;2.50;2.40;;;;;;;;;;5114366;28;20214;-89
2023/05/05 13:38:37;;;;;;;3.13;2.83;;;;;;;;;;5114491;28;20232;-88
2023/05/05 13:41:05;;;;;;;4.13;3.70;;;;;;;;;;5114477;28;20203;-88
2023/05/05 13:43:31;;;;;;;8.20;7.07;;;;;;;;;;5114676;28;20207;-87
2023/05/05 13:46:00;;;;;;;12.50;8.33;;;;;;;;;;5114264;28;20280;-88
2023/05/05 13:48:28;;;;;;;21.67;16.33;;;;;;;;;;5114360;28;20203;-87
2023/05/05 13:50:55;;;;;;;9.20;6.40;;;;;;;;;;5113925;28;20229;-88
2023/05/05 13:53:21;;;;;;;11.50;6.53;;;;;;;;;;5114215;28;20208;-88
2023/05/05 13:55:48;;;;;;;3.17;2.93;;;;;;;;;;5113844;28;20591;-87
2023/05/05 13:58:15;;;;;;;4.00;3.70;;;;;;;;;;5113830;28;20203;-88
2023/05/05 14:00:43;;;;;;;4.20;3.83;;;;;;;;;;5113497;28;20196;-88
2023/05/05 14:03:09;;;;;;;7.47;6.20;;;;;;;;;;5113848;28;20196;-87
2023/05/05 14:05:41;;;;;;;4.00;3.30;;;;;;;;;;5113918;28;20207;-88
2023/05/05 14:08:08;;;;;;;4.67;4.30;;;;;;;;;;5109752;28;20226;-87
2023/05/05 14:10:35;;;;;;;4.07;3.40;;;;;;;;;;5112606;28;20571;-82
2023/05/05 14:13:03;;;;;;;3.80;3.20;;;;;;;;;;5111374;28;20207;-83
2023/05/05 14:15:30;;;;;;;3.07;2.87;;;;;;;;;;5110378;28;20227;-82
2023/05/05 14:17:58;;;;;;;2.80;2.53;;;;;;;;;;5111712;28;20677;-81
2023/05/05 14:20:25;;;;;;;3.37;3.07;;;;;;;;;;5112252;28;20294;-87
2023/05/05 14:22:54;;;;;;;4.10;3.70;;;;;;;;;;5111279;28;20207;-85
2023/05/05 14:25:21;;;;;;;8.83;8.03;;;;;;;;;;5107356;28;20200;-83
2023/05/05 14:27:47;;;;;;;5.80;5.30;;;;;;;;;;5091774;28;20207;-83
2023/05/05 14:30:15;;;;;;;3.53;3.23;;;;;;;;;;5112056;28;20214;-85
2023/05/05 14:32:42;;;;;;;3.13;2.83;;;;;;;;;;5112013;28;20697;-82
2023/05/05 14:35:09;;;;;;;3.60;3.30;;;;;;;;;;5107612;28;20223;-82
2023/05/05 14:37:35;;;;;;;3.67;3.00;;;;;;;;;;5111412;28;20690;-84
2023/05/05 14:40:05;;;;;;;4.80;3.13;;;;;;;;;;5112895;28;20655;-86
2023/05/05 14:42:32;;;;;;;3.20;2.83;;;;;;;;;;5111373;27;20287;-87
2023/05/05 14:45:02;;;;;;;3.30;3.00;;;;;;;;;;5111042;28;20207;-87
2023/05/05 14:47:29;;;;;;;4.33;3.33;;;;;;;;;;5104526;28;20210;-88
2023/05/05 14:49:57;;;;;;;4.87;3.00;;;;;;;;;;5090916;28;20230;-87
2023/05/05 14:52:24;;;;;;;3.10;2.87;;;;;;;;;;5093991;28;20283;-85